createdAt,value
2023-04-18T00:00:42.445Z,73.24
2023-04-18T00:03:16.041Z,73.68
2023-04-18T00:05:48.128Z,74.12
2023-04-18T00:08:18.231Z,74.39
2023-04-18T00:10:50.618Z,74.88
2023-04-18T00:13:20.650Z,75.28
2023-04-18T00:15:50.491Z,74.73
2023-04-18T00:18:20.225Z,75.41
2023-04-18T00:20:49.955Z,75.81
2023-04-18T00:23:21.621Z,76.10
2023-04-18T00:25:53.933Z,76.80
2023-04-18T00:28:23.639Z,76.58
2023-04-18T00:30:53.418Z,76.60
2023-04-18T00:33:23.177Z,76.82
2023-04-18T00:35:55.013Z,76.93
2023-04-18T00:38:24.793Z,77.12
2023-04-18T00:40:57.156Z,76.90
2023-04-18T00:43:27.158Z,76.97
2023-04-18T00:45:57.267Z,76.92
2023-04-18T00:48:27.908Z,76.83
2023-04-18T00:51:00.456Z,76.57
2023-04-18T00:53:31.340Z,77.21
2023-04-18T00:56:03.730Z,77.87
2023-04-18T00:58:34.991Z,78.05
2023-04-18T01:01:04.766Z,78.13
2023-04-18T01:03:34.980Z,78.53
2023-04-18T01:06:04.963Z,77.87
2023-04-18T01:08:36.355Z,78.49
2023-04-18T01:11:08.842Z,78.77
2023-04-18T01:13:38.798Z,79.57
2023-04-18T01:16:09.052Z,79.29
2023-04-18T01:18:40.432Z,79.88
2023-04-18T01:21:11.122Z,80.09
2023-04-18T01:23:40.933Z,80.42
2023-04-18T01:26:13.390Z,79.58
2023-04-18T01:28:43.184Z,80.03
2023-04-18T01:31:13.013Z,80.45
2023-04-18T01:33:42.787Z,80.14
2023-04-18T01:36:12.546Z,79.84
2023-04-18T01:38:42.304Z,80.02
2023-04-18T01:41:14.645Z,80.31
2023-04-18T01:43:46.241Z,80.04
2023-04-18T01:46:16.976Z,79.78
2023-04-18T01:48:46.758Z,80.26
2023-04-18T01:51:16.556Z,79.96
2023-04-18T01:53:46.333Z,80.50
2023-04-18T01:56:18.724Z,80.45
2023-04-18T01:58:48.519Z,80.85
2023-04-18T02:01:18.441Z,81.54
2023-04-18T02:03:48.720Z,81.12
2023-04-18T02:06:18.613Z,80.92
2023-04-18T02:08:49.949Z,81.48
2023-04-18T02:11:22.357Z,81.84
2023-04-18T02:13:52.134Z,82.77
2023-04-18T02:16:22.060Z,82.85
2023-04-18T02:18:52.582Z,83.36
2023-04-18T02:21:22.858Z,84.24
2023-04-18T02:23:52.678Z,84.64
2023-04-18T02:26:27.473Z,84.62
2023-04-18T02:29:00.737Z,84.56
2023-04-18T02:31:33.203Z,85.15
2023-04-18T02:34:03.252Z,85.66
2023-04-18T02:36:33.057Z,85.71
2023-04-18T02:39:03.425Z,85.53
2023-04-18T02:41:37.816Z,86.34
2023-04-18T02:44:07.666Z,86.94
2023-04-18T02:46:40.359Z,87.20
2023-04-18T02:49:14.801Z,88.43
2023-04-18T02:51:44.959Z,90.15
2023-04-18T02:54:15.014Z,90.94
2023-04-18T02:56:58.946Z,91.51
2023-04-18T02:59:39.396Z,92.00
2023-04-18T03:02:44.046Z,92.15
2023-04-18T03:05:28.868Z,92.17
2023-04-18T03:08:02.028Z,91.82
2023-04-18T03:10:32.641Z,91.12
2023-04-18T03:13:05.003Z,91.81
2023-04-18T03:15:34.959Z,91.96
2023-04-18T03:18:05.461Z,92.60
2023-04-18T03:20:38.549Z,91.91
2023-04-18T03:23:10.396Z,92.72
2023-04-18T03:25:40.219Z,93.57
2023-04-18T03:28:12.615Z,94.07
2023-04-18T03:30:42.892Z,93.67
2023-04-18T03:33:14.547Z,94.24
2023-04-18T03:35:45.151Z,94.44
2023-04-18T03:38:15.381Z,94.27
2023-04-18T03:40:46.476Z,94.12
2023-04-18T03:43:29.260Z,94.80
2023-04-18T03:45:59.248Z,95.61
2023-04-18T03:48:30.084Z,96.42
2023-04-18T03:51:04.225Z,97.03
2023-04-18T03:53:34.593Z,97.38
2023-04-18T03:56:04.405Z,97.58
2023-04-18T03:59:08.866Z,97.63
2023-04-18T04:01:38.749Z,98.62
2023-04-18T04:04:09.493Z,99.27
2023-04-18T04:06:39.416Z,98.85
2023-04-18T04:09:09.318Z,98.56
2023-04-18T04:11:39.808Z,98.34
2023-04-18T04:14:14.819Z,98.59
2023-04-18T04:16:48.267Z,99.43
2023-04-18T04:19:20.236Z,100.00
2023-04-18T04:22:01.028Z,100.00
2023-04-18T04:24:33.385Z,100.00
2023-04-18T04:27:03.851Z,100.00
2023-04-18T04:29:39.002Z,100.00
2023-04-18T04:32:09.680Z,100.00
2023-04-18T04:34:41.564Z,100.00
2023-04-18T04:37:14.152Z,100.00
2023-04-18T04:39:56.722Z,100.00
2023-04-18T04:42:46.136Z,100.00
2023-04-18T04:45:25.581Z,100.00
2023-04-18T04:47:55.514Z,100.00
2023-04-18T04:50:25.668Z,100.00
2023-04-18T04:52:55.427Z,100.00
2023-04-18T04:55:25.205Z,100.00
2023-04-18T04:57:57.628Z,100.00
2023-04-18T05:00:56.576Z,100.00
2023-04-18T05:03:26.565Z,100.00
2023-04-18T05:05:56.657Z,100.00
2023-04-18T05:08:26.401Z,100.00
2023-04-18T05:10:56.245Z,100.00
2023-04-18T05:13:25.998Z,100.00
2023-04-18T05:15:59.423Z,100.00
2023-04-18T05:18:29.278Z,100.00
2023-04-18T05:20:59.043Z,100.00
2023-04-18T05:23:28.790Z,100.00
2023-04-18T05:25:58.602Z,100.00
2023-04-18T05:28:28.870Z,100.00
2023-04-18T05:31:03.878Z,100.00
2023-04-18T05:33:34.589Z,100.00
2023-04-18T05:36:04.368Z,100.00
2023-04-18T05:38:34.142Z,100.00
2023-04-18T05:41:03.950Z,100.00
2023-04-18T05:43:33.738Z,100.00
2023-04-18T05:46:06.257Z,100.00
2023-04-18T05:48:36.036Z,100.00
2023-04-18T05:51:06.102Z,100.00
2023-04-18T05:53:35.843Z,100.00
2023-04-18T05:56:05.704Z,100.00
2023-04-18T05:58:35.540Z,100.00
2023-04-18T06:01:09.060Z,100.00
2023-04-18T06:03:38.922Z,100.00
2023-04-18T06:06:09.062Z,99.95
2023-04-18T06:08:38.830Z,99.15
2023-04-18T06:11:09.185Z,98.96
2023-04-18T06:13:39.271Z,96.91
2023-04-18T06:16:11.797Z,97.16
2023-04-18T06:18:41.865Z,97.43
2023-04-18T06:21:11.682Z,97.19
2023-04-18T06:23:41.417Z,96.43
2023-04-18T06:26:11.355Z,96.52
2023-04-18T06:28:41.115Z,96.42
2023-04-18T06:31:13.484Z,95.43
2023-04-18T06:33:43.359Z,95.33
2023-04-18T06:36:13.290Z,94.11
2023-04-18T06:38:43.039Z,93.91
2023-04-18T06:41:12.804Z,95.57
2023-04-18T06:43:52.071Z,93.80
2023-04-18T06:46:34.663Z,92.76
2023-04-18T06:49:04.519Z,93.85
2023-04-18T06:51:34.474Z,93.96
2023-04-18T06:54:04.488Z,94.51
2023-04-18T06:56:36.406Z,96.19
2023-04-18T06:59:06.458Z,94.76
2023-04-18T07:01:43.221Z,93.83
2023-04-18T07:04:13.292Z,93.87
2023-04-18T07:06:43.366Z,93.30
2023-04-18T07:09:13.165Z,91.61
2023-04-18T07:11:42.931Z,90.79
2023-04-18T07:14:13.017Z,90.53
2023-04-18T07:16:45.773Z,91.31
2023-04-18T07:19:15.726Z,90.36
2023-04-18T07:21:46.263Z,89.41
2023-04-18T07:24:16.216Z,89.99
2023-04-18T07:26:46.406Z,89.97
2023-04-18T07:29:16.307Z,89.54
2023-04-18T07:31:49.125Z,88.60
2023-04-18T07:34:18.930Z,87.43
2023-04-18T07:36:48.736Z,87.22
2023-04-18T07:39:18.524Z,86.55
2023-04-18T07:41:48.354Z,86.20
2023-04-18T07:44:18.450Z,85.33
2023-04-18T07:46:50.944Z,84.62
2023-04-18T07:49:20.794Z,85.00
2023-04-18T07:51:50.646Z,84.45
2023-04-18T07:54:20.428Z,83.54
2023-04-18T07:56:50.214Z,83.81
2023-04-18T07:59:20.013Z,83.53
2023-04-18T08:01:52.398Z,83.60
2023-04-18T08:04:22.335Z,84.21
2023-04-18T08:06:53.882Z,83.89
2023-04-18T08:09:23.642Z,83.67
2023-04-18T08:11:55.330Z,83.88
2023-04-18T08:14:25.217Z,83.32
2023-04-18T08:16:57.607Z,82.71
2023-04-18T08:19:27.376Z,83.63
2023-04-18T08:21:57.136Z,82.28
2023-04-18T08:24:27.594Z,83.61
2023-04-18T08:26:57.680Z,83.71
2023-04-18T08:29:27.537Z,83.34
2023-04-18T08:32:00.181Z,83.69
2023-04-18T08:34:30.072Z,83.95
2023-04-18T08:36:59.830Z,83.73
2023-04-18T08:39:29.581Z,82.08
2023-04-18T08:42:03.588Z,82.02
2023-04-18T08:44:33.741Z,83.42
2023-04-18T08:47:06.374Z,82.13
2023-04-18T08:49:36.327Z,82.35
2023-04-18T08:52:13.617Z,80.96
2023-04-18T08:54:44.538Z,82.33
2023-04-18T08:57:16.651Z,80.83
2023-04-18T08:59:50.868Z,81.11
2023-04-18T09:02:28.735Z,81.94
2023-04-18T09:04:58.573Z,81.45
2023-04-18T09:07:31.477Z,80.38
2023-04-18T09:10:01.268Z,79.76
2023-04-18T09:12:32.823Z,79.08
2023-04-18T09:15:13.910Z,76.87
2023-04-18T09:17:51.321Z,77.24
2023-04-18T09:20:35.292Z,77.17
2023-04-18T09:23:10.746Z,77.91
2023-04-18T09:25:46.858Z,76.91
2023-04-18T09:28:28.182Z,75.06
2023-04-18T09:30:59.465Z,74.52
2023-04-18T09:33:33.197Z,74.10
2023-04-18T09:36:21.608Z,73.69
2023-04-18T09:38:55.395Z,74.46
2023-04-18T09:41:27.210Z,73.75
2023-04-18T09:44:14.921Z,74.21
2023-04-18T09:46:47.528Z,73.94
2023-04-18T09:49:20.684Z,74.54
2023-04-18T09:51:53.391Z,74.84
2023-04-18T09:54:26.504Z,72.77
2023-04-18T09:56:56.596Z,73.01
2023-04-18T09:59:39.945Z,72.94
2023-04-18T10:02:17.428Z,73.81
2023-04-18T10:04:50.476Z,73.23
2023-04-18T10:07:20.795Z,72.97
2023-04-18T10:09:52.110Z,73.50
2023-04-18T10:12:22.995Z,73.18
2023-04-18T10:14:53.766Z,72.29
2023-04-18T10:17:23.663Z,72.67
2023-04-18T10:20:12.908Z,72.42
2023-04-18T10:22:42.828Z,74.40
2023-04-18T10:25:12.996Z,72.83
2023-04-18T10:28:02.620Z,71.95
2023-04-18T10:30:56.040Z,71.42
2023-04-18T10:33:34.046Z,71.17
2023-04-18T10:36:17.962Z,70.46
2023-04-18T10:38:51.552Z,72.60
2023-04-18T10:41:26.334Z,72.59
2023-04-18T10:44:18.554Z,72.34
2023-04-18T10:47:33.656Z,73.47
2023-04-18T10:50:08.322Z,74.70
2023-04-18T10:52:41.736Z,72.91
2023-04-18T10:55:16.000Z,72.61
2023-04-18T10:57:47.306Z,73.35
2023-04-18T11:00:20.702Z,71.02
2023-04-18T11:02:56.203Z,70.64
2023-04-18T11:05:28.799Z,70.60
2023-04-18T11:08:01.103Z,70.42
2023-04-18T11:10:31.095Z,70.84
2023-04-18T11:13:04.807Z,70.98
2023-04-18T11:15:34.736Z,68.76
2023-04-18T11:18:06.301Z,68.49
2023-04-18T11:20:41.918Z,68.30
2023-04-18T11:23:25.044Z,67.01
2023-04-18T11:25:58.392Z,68.25
2023-04-18T11:28:28.798Z,68.54
2023-04-18T11:31:03.002Z,67.71
2023-04-18T11:33:33.099Z,67.10
2023-04-18T11:36:03.294Z,65.31
2023-04-18T11:38:35.945Z,65.33
2023-04-18T11:41:06.007Z,65.63
2023-04-18T11:43:35.870Z,66.36
2023-04-18T11:46:05.638Z,64.26
2023-04-18T11:48:38.856Z,64.66
2023-04-18T11:51:09.426Z,64.10
2023-04-18T11:53:41.891Z,65.25
2023-04-18T11:56:16.226Z,64.68
2023-04-18T11:58:46.336Z,64.45
2023-04-18T12:01:21.116Z,63.03
2023-04-18T12:04:03.880Z,63.94
2023-04-18T12:06:49.296Z,62.35
2023-04-18T12:09:22.384Z,63.64
2023-04-18T12:12:02.942Z,62.34
2023-04-18T12:14:33.380Z,63.24
2023-04-18T12:17:06.051Z,63.83
2023-04-18T12:19:36.146Z,63.42
2023-04-18T12:22:06.823Z,63.68
2023-04-18T12:24:39.284Z,64.10
2023-04-18T12:27:09.062Z,64.13
2023-04-18T12:29:38.797Z,63.81
2023-04-18T12:32:08.653Z,64.68
2023-04-18T12:34:38.402Z,63.20
2023-04-18T12:37:09.060Z,63.34
2023-04-18T12:39:41.389Z,61.83
2023-04-18T12:42:11.190Z,62.43
2023-04-18T12:44:41.165Z,62.92
2023-04-18T12:47:11.647Z,62.27
2023-04-18T12:49:41.455Z,61.49
2023-04-18T12:52:11.260Z,61.63
2023-04-18T12:54:43.628Z,61.44
2023-04-18T12:57:13.410Z,61.69
2023-04-18T12:59:43.132Z,60.83
2023-04-18T13:02:13.020Z,61.14
2023-04-18T13:04:43.054Z,61.04
2023-04-18T13:07:12.959Z,60.43
2023-04-18T13:09:46.506Z,61.95
2023-04-18T13:12:16.418Z,60.54
2023-04-18T13:14:46.154Z,61.70
2023-04-18T13:17:16.133Z,62.77
2023-04-18T13:19:46.082Z,62.83
2023-04-18T13:22:15.799Z,61.36
2023-04-18T13:24:48.333Z,61.43
2023-04-18T13:27:18.333Z,60.78
2023-04-18T13:29:48.350Z,60.40
2023-04-18T13:32:18.335Z,60.28
2023-04-18T13:34:49.609Z,60.05
2023-04-18T13:37:19.889Z,61.26
2023-04-18T13:39:52.273Z,60.01
2023-04-18T13:42:22.119Z,60.49
2023-04-18T13:44:52.060Z,59.76
2023-04-18T13:47:22.027Z,60.27
2023-04-18T13:49:52.043Z,60.08
2023-04-18T13:52:21.819Z,60.18
2023-04-18T13:54:54.137Z,58.91
2023-04-18T13:57:26.668Z,58.21
2023-04-18T13:59:56.434Z,58.67
2023-04-18T14:02:26.350Z,58.91
2023-04-18T14:04:58.344Z,57.93
2023-04-18T14:07:28.357Z,58.89
2023-04-18T14:10:00.676Z,57.58
2023-04-18T14:12:30.369Z,58.08
2023-04-18T14:15:00.066Z,58.09
2023-04-18T14:17:30.322Z,57.72
2023-04-18T14:20:00.069Z,58.21
2023-04-18T14:22:29.976Z,58.58
2023-04-18T14:25:02.269Z,56.99
2023-04-18T14:27:33.080Z,58.29
2023-04-18T14:30:02.818Z,57.83
2023-04-18T14:32:32.799Z,58.32
2023-04-18T14:35:02.498Z,58.51
2023-04-18T14:37:32.228Z,58.93
2023-04-18T14:40:05.634Z,59.25
2023-04-18T14:42:35.397Z,58.70
2023-04-18T14:45:05.354Z,58.23
2023-04-18T14:47:35.191Z,56.26
2023-04-18T14:50:05.106Z,57.36
2023-04-18T14:52:34.894Z,56.83
2023-04-18T14:55:08.017Z,57.19
2023-04-18T14:57:38.768Z,57.93
2023-04-18T15:00:12.680Z,57.98
2023-04-18T15:02:42.815Z,57.67
2023-04-18T15:05:14.932Z,57.89
2023-04-18T15:07:45.314Z,58.08
2023-04-18T15:10:17.622Z,58.00
2023-04-18T15:12:47.415Z,57.39
2023-04-18T15:15:17.444Z,57.55
2023-04-18T15:17:47.403Z,57.57
2023-04-18T15:20:17.194Z,59.06
2023-04-18T15:22:46.951Z,58.79
2023-04-18T15:25:19.492Z,59.80
2023-04-18T15:27:49.367Z,59.18
2023-04-18T15:30:19.283Z,60.10
2023-04-18T15:32:49.075Z,60.82
2023-04-18T15:35:18.831Z,59.98
2023-04-18T15:37:49.278Z,59.76
2023-04-18T15:40:21.820Z,59.39
2023-04-18T15:42:54.331Z,59.36
2023-04-18T15:45:24.397Z,59.80
2023-04-18T15:47:54.294Z,60.01
2023-04-18T15:50:24.537Z,59.81
2023-04-18T15:52:54.386Z,57.83
2023-04-18T15:55:26.684Z,58.93
2023-04-18T15:57:56.442Z,59.54
2023-04-18T16:00:26.563Z,59.92
2023-04-18T16:02:56.470Z,59.97
2023-04-18T16:05:26.642Z,60.54
2023-04-18T16:07:56.468Z,60.55
2023-04-18T16:10:28.798Z,59.87
2023-04-18T16:12:59.637Z,59.67
2023-04-18T16:15:29.866Z,59.29
2023-04-18T16:17:59.823Z,60.53
2023-04-18T16:20:29.891Z,60.59
2023-04-18T16:22:59.758Z,60.11
2023-04-18T16:25:32.168Z,60.65
2023-04-18T16:28:01.985Z,60.99
2023-04-18T16:30:31.773Z,60.73
2023-04-18T16:33:01.879Z,61.21
2023-04-18T16:35:31.771Z,61.00
2023-04-18T16:38:01.553Z,60.80
2023-04-18T16:40:35.154Z,61.06
2023-04-18T16:43:04.929Z,62.20
2023-04-18T16:45:36.107Z,62.46
2023-04-18T16:48:06.237Z,62.97
2023-04-18T16:50:36.092Z,63.23
2023-04-18T16:53:05.891Z,63.00
2023-04-18T16:55:38.289Z,61.97
2023-04-18T16:58:08.023Z,62.71
2023-04-18T17:00:39.283Z,62.46
2023-04-18T17:03:10.237Z,62.56
2023-04-18T17:05:40.218Z,62.25
2023-04-18T17:08:10.277Z,63.14
2023-04-18T17:10:42.741Z,62.98
2023-04-18T17:13:12.539Z,63.70
2023-04-18T17:15:43.113Z,64.51
2023-04-18T17:18:12.898Z,65.18
2023-04-18T17:20:42.668Z,66.15
2023-04-18T17:23:12.618Z,66.56
2023-04-18T17:25:45.030Z,66.57
2023-04-18T17:28:15.189Z,67.21
2023-04-18T17:30:45.338Z,67.89
2023-04-18T17:33:15.281Z,68.66
2023-04-18T17:35:45.165Z,68.88
2023-04-18T17:38:14.921Z,69.55
2023-04-18T17:40:47.277Z,69.73
2023-04-18T17:43:17.044Z,69.13
2023-04-18T17:45:46.970Z,69.13
2023-04-18T17:48:16.902Z,69.28
2023-04-18T17:50:46.819Z,69.71
2023-04-18T17:53:17.669Z,69.97
2023-04-18T17:55:52.369Z,70.05
2023-04-18T17:58:22.317Z,70.36
2023-04-18T18:00:52.183Z,70.15
2023-04-18T18:03:23.028Z,70.76
2023-04-18T18:05:55.103Z,71.24
2023-04-18T18:08:25.930Z,71.58
2023-04-18T18:10:58.434Z,71.96
2023-04-18T18:13:28.306Z,71.98
2023-04-18T18:15:59.310Z,72.67
2023-04-18T18:18:33.022Z,73.03
2023-04-18T18:21:02.762Z,72.95
2023-04-18T18:23:32.585Z,72.58
2023-04-18T18:26:06.768Z,73.31
2023-04-18T18:28:36.873Z,73.31
2023-04-18T18:31:07.047Z,73.45
2023-04-18T18:33:37.037Z,73.92
2023-04-18T18:36:07.536Z,74.01
2023-04-18T18:38:37.277Z,74.39
2023-04-18T18:41:09.656Z,74.41
2023-04-18T18:43:39.403Z,74.36
2023-04-18T18:46:09.188Z,74.13
2023-04-18T18:48:39.763Z,73.92
2023-04-18T18:51:09.845Z,73.53
2023-04-18T18:53:40.625Z,74.05
2023-04-18T18:56:13.194Z,74.06
2023-04-18T18:58:43.867Z,73.98
2023-04-18T19:01:14.225Z,73.88
2023-04-18T19:03:44.062Z,73.89
2023-04-18T19:06:14.038Z,73.75
2023-04-18T19:08:43.894Z,73.63
2023-04-18T19:11:16.440Z,74.00
2023-04-18T19:13:46.438Z,73.89
2023-04-18T19:16:16.434Z,74.15
2023-04-18T19:18:47.491Z,74.39
2023-04-18T19:21:17.236Z,73.96
2023-04-18T19:23:47.005Z,74.36
2023-04-18T19:26:19.434Z,74.50
2023-04-18T19:28:49.181Z,74.83
2023-04-18T19:31:18.950Z,74.72
2023-04-18T19:33:48.832Z,74.21
2023-04-18T19:36:19.246Z,74.90
2023-04-18T19:38:48.984Z,75.17
2023-04-18T19:41:21.886Z,75.37
2023-04-18T19:43:51.752Z,75.61
2023-04-18T19:46:21.597Z,75.19
2023-04-18T19:48:51.551Z,75.29
2023-04-18T19:51:21.532Z,75.65
2023-04-18T19:53:51.545Z,75.98
2023-04-18T19:56:24.198Z,76.19
2023-04-18T19:58:54.196Z,76.05
2023-04-18T20:01:25.002Z,76.49
2023-04-18T20:03:57.668Z,77.04
2023-04-18T20:06:27.967Z,77.83
2023-04-18T20:08:58.043Z,78.00
2023-04-18T20:11:30.410Z,78.48
2023-04-18T20:14:00.192Z,78.24
2023-04-18T20:16:30.726Z,78.11
2023-04-18T20:19:01.834Z,77.83
2023-04-18T20:21:31.598Z,78.04
2023-04-18T20:24:01.399Z,78.11
2023-04-18T20:26:34.188Z,77.90
2023-04-18T20:29:04.037Z,78.15
2023-04-18T20:31:33.790Z,78.44
2023-04-18T20:34:03.525Z,78.97
2023-04-18T20:36:34.573Z,78.74
2023-04-18T20:39:05.998Z,79.00
2023-04-18T20:41:38.704Z,78.29
2023-04-18T20:44:10.234Z,78.06
2023-04-18T20:46:40.082Z,77.73
2023-04-18T20:49:09.886Z,77.90
2023-04-18T20:51:39.910Z,77.76
2023-04-18T20:54:09.835Z,77.49
2023-04-18T20:56:42.159Z,77.31
2023-04-18T20:59:12.098Z,77.31
2023-04-18T21:01:42.141Z,76.86
2023-04-18T21:04:12.101Z,76.50
2023-04-18T21:06:41.943Z,75.51
2023-04-18T21:09:11.729Z,75.27
2023-04-18T21:11:44.146Z,75.28
2023-04-18T21:14:14.069Z,74.72
2023-04-18T21:16:44.181Z,74.81
2023-04-18T21:19:14.021Z,74.50
2023-04-18T21:21:43.793Z,74.64
2023-04-18T21:24:13.763Z,75.24
2023-04-18T21:26:46.421Z,74.80
2023-04-18T21:29:16.331Z,74.60
2023-04-18T21:31:46.815Z,74.92
2023-04-18T21:34:16.904Z,75.72
2023-04-18T21:36:47.031Z,75.15
2023-04-18T21:39:16.993Z,74.95
2023-04-18T21:41:49.908Z,74.48
2023-04-18T21:44:20.331Z,75.75
2023-04-18T21:46:50.326Z,75.14
2023-04-18T21:49:20.395Z,74.76
2023-04-18T21:51:51.080Z,74.82
2023-04-18T21:54:20.841Z,74.39
2023-04-18T21:56:53.229Z,74.56
2023-04-18T21:59:23.004Z,74.15
2023-04-18T22:01:52.782Z,73.67
2023-04-18T22:04:26.184Z,73.81
2023-04-18T22:06:57.310Z,74.36
2023-04-18T22:09:27.093Z,74.01
2023-04-18T22:11:59.706Z,74.31
2023-04-18T22:14:29.413Z,74.59
2023-04-18T22:16:59.683Z,74.05
2023-04-18T22:19:31.510Z,74.55
2023-04-18T22:22:01.966Z,74.53
2023-04-18T22:24:31.913Z,74.55
2023-04-18T22:27:04.642Z,74.64
2023-04-18T22:29:34.660Z,74.60
2023-04-18T22:32:04.688Z,74.82
2023-04-18T22:34:34.703Z,74.60
2023-04-18T22:37:04.450Z,74.61
2023-04-18T22:39:34.190Z,75.03
2023-04-18T22:42:06.791Z,74.49
2023-04-18T22:44:36.548Z,74.49
2023-04-18T22:47:06.492Z,74.44
2023-04-18T22:49:40.497Z,73.85
2023-04-18T22:52:10.868Z,74.09
2023-04-18T22:54:41.775Z,73.62
2023-04-18T22:57:14.214Z,73.19
2023-04-18T22:59:43.997Z,73.00
2023-04-18T23:02:14.390Z,73.18
2023-04-18T23:04:46.206Z,73.70
2023-04-18T23:07:16.199Z,72.99
2023-04-18T23:09:46.033Z,73.08
2023-04-18T23:12:18.385Z,72.82
2023-04-18T23:14:48.505Z,72.76
2023-04-18T23:17:18.421Z,72.45
2023-04-18T23:19:48.186Z,72.56
2023-04-18T23:22:17.981Z,72.43
2023-04-18T23:24:47.710Z,72.42
2023-04-18T23:27:20.109Z,71.55
2023-04-18T23:29:50.525Z,71.74
2023-04-18T23:32:20.273Z,71.42
2023-04-18T23:34:50.043Z,70.95
2023-04-18T23:37:19.825Z,70.16
2023-04-18T23:39:49.634Z,70.13
2023-04-18T23:42:21.984Z,70.28
2023-04-18T23:44:52.706Z,69.99
2023-04-18T23:47:22.513Z,68.68
2023-04-18T23:49:52.265Z,66.19
2023-04-18T23:52:22.025Z,66.38
2023-04-18T23:54:51.972Z,66.15
2023-04-18T23:57:24.306Z,66.33
2023-04-18T23:59:54.079Z,65.88
